CheckWX is a tool to help pilots better visualize weather data.  It is not intended as a substitute for an official pre-flight weather briefing.

20:36:34 UTC

KEZS METAR
Shawano Municipal Airport
Shawano, Wisconsin, USA
Current

22 mins ago

KEZS 182015Z AUTO 12003KT 10SM CLR 02/M13 A3038 RMK AO2 T00211132
Observed
Feb-18 @ 20:15 UTC
Wind
  • 120° at 3 KTS
Visibility
10 SM
Flight Rules
VFR
Cloud Levels
  • Clear skies
Temperature
C / 36°F
Dewpoint
-13°C / 9°F
Humidity
32%
Altimeter
30.38" Hg
Pressure
1028.81 hPa
Previous

42 mins ago

KEZS 181955Z AUTO 14003KT 10SM CLR 04/M13 A3038 RMK AO2 T00351126
Observed
Feb-18 @ 19:55 UTC
Wind
  • 140° at 3 KTS
Visibility
10 SM
Flight Rules
VFR
Cloud Levels
  • Clear skies
Temperature
C / 39°F
Dewpoint
-13°C / 9°F
Humidity
28%
Altimeter
30.38" Hg
Pressure
1028.81 hPa
Previous

1 hour ago

KEZS 181935Z AUTO 00000KT 10SM CLR 05/M12 A3038 RMK AO2 T00471125
Observed
Feb-18 @ 19:35 UTC
Visibility
10 SM
Flight Rules
VFR
Cloud Levels
  • Clear skies
Temperature
C / 41°F
Dewpoint
-13°C / 9°F
Humidity
26%
Altimeter
30.38" Hg
Pressure
1028.81 hPa